createdAt,value
2022-08-09T00:00:21.379Z,2.75
2022-08-09T00:02:51.545Z,3.17
2022-08-09T00:06:17.501Z,3.17
2022-08-09T00:08:11.097Z,3.08
2022-08-09T00:10:40.746Z,3.05
2022-08-09T00:13:16.752Z,3.10
2022-08-09T00:15:58.130Z,2.85
2022-08-09T00:18:26.716Z,3.70
2022-08-09T00:20:55.441Z,3.10
2022-08-09T00:23:58.345Z,3.08
2022-08-09T00:26:11.028Z,3.10
2022-08-09T00:28:39.589Z,3.20
2022-08-09T00:31:30.639Z,3.30
2022-08-09T00:33:55.449Z,2.92
2022-08-09T00:36:27.147Z,3.35
2022-08-09T00:38:57.964Z,3.20
2022-08-09T00:44:15.773Z,3.05
2022-08-09T00:44:25.475Z,2.80
2022-08-09T00:46:55.777Z,3.10
2022-08-09T00:49:24.948Z,3.35
2022-08-09T00:51:57.095Z,3.15
2022-08-09T00:54:35.260Z,3.13
2022-08-09T00:57:08.782Z,3.40
2022-08-09T00:59:41.569Z,3.40
2022-08-09T01:02:21.420Z,3.08
2022-08-09T01:05:14.037Z,3.88
2022-08-09T01:08:00.729Z,3.03
2022-08-09T01:10:48.027Z,3.33
2022-08-09T01:13:53.369Z,2.95
2022-08-09T01:16:32.299Z,2.95
2022-08-09T01:19:17.168Z,3.20
2022-08-09T01:22:37.468Z,3.28
2022-08-09T01:25:48.858Z,2.90
2022-08-09T01:28:21.760Z,3.58
2022-08-09T01:30:53.346Z,3.33
2022-08-09T01:33:28.395Z,3.45
2022-08-09T01:36:13.543Z,3.30
2022-08-09T01:38:46.455Z,2.92
2022-08-09T01:41:19.522Z,3.17
2022-08-09T01:43:57.879Z,3.50
2022-08-09T01:46:39.617Z,3.28
2022-08-09T01:49:14.582Z,3.95
2022-08-09T01:51:53.844Z,3.28
2022-08-09T01:54:32.753Z,3.30
2022-08-09T01:57:15.162Z,4.05
2022-08-09T01:59:51.537Z,3.55
2022-08-09T02:02:30.090Z,3.50
2022-08-09T02:05:11.742Z,3.40
2022-08-09T02:08:41.308Z,3.40
2022-08-09T02:10:40.799Z,3.00
2022-08-09T02:13:12.814Z,3.40
2022-08-09T02:15:49.347Z,3.78
2022-08-09T02:18:28.277Z,3.20
2022-08-09T02:21:17.301Z,3.40
2022-08-09T02:24:00.028Z,3.40
2022-08-09T02:26:34.337Z,3.22
2022-08-09T02:29:13.451Z,3.60
2022-08-09T02:31:45.175Z,3.67
2022-08-09T02:34:25.940Z,3.55
2022-08-09T02:37:15.881Z,3.55
2022-08-09T02:39:55.308Z,3.42
2022-08-09T02:42:36.213Z,3.45
2022-08-09T02:45:13.483Z,3.88
2022-08-09T02:47:57.513Z,3.70
2022-08-09T02:50:57.912Z,3.28
2022-08-09T02:53:34.503Z,3.38
2022-08-09T02:58:37.075Z,3.50
2022-08-09T03:01:07.868Z,3.60
2022-08-09T03:04:17.315Z,3.90
2022-08-09T03:06:29.165Z,3.78
2022-08-09T03:08:58.950Z,3.88
2022-08-09T03:11:29.943Z,3.95
2022-08-09T03:14:18.110Z,3.83
2022-08-09T03:16:48.131Z,4.00
2022-08-09T03:19:59.589Z,3.80
2022-08-09T03:22:11.784Z,3.47
2022-08-09T03:24:52.341Z,3.50
2022-08-09T03:27:22.328Z,3.40
2022-08-09T03:29:58.040Z,3.75
2022-08-09T03:32:31.503Z,3.22
2022-08-09T03:35:00.707Z,3.08
2022-08-09T03:37:55.582Z,3.42
2022-08-09T03:40:17.024Z,2.97
2022-08-09T03:42:45.860Z,3.20
2022-08-09T03:45:13.657Z,3.38
2022-08-09T03:47:46.412Z,3.30
2022-08-09T03:50:27.703Z,3.58
2022-08-09T03:53:03.226Z,3.95
2022-08-09T03:55:35.952Z,3.50
2022-08-09T03:58:14.650Z,3.50
2022-08-09T04:00:45.707Z,3.60
2022-08-09T04:03:24.899Z,3.50
2022-08-09T04:06:04.730Z,3.17
2022-08-09T04:08:32.741Z,3.20
2022-08-09T04:11:01.805Z,4.07
2022-08-09T04:14:36.666Z,3.92
2022-08-09T04:16:19.334Z,8.18
2022-08-09T04:18:47.682Z,5.80
2022-08-09T04:21:15.871Z,4.00
2022-08-09T04:23:57.495Z,4.93
2022-08-09T04:26:25.103Z,9.20
2022-08-09T04:29:07.906Z,5.20
2022-08-09T04:31:47.033Z,7.70
2022-08-09T04:36:50.359Z,14.60
2022-08-09T04:39:17.248Z,7.00
2022-08-09T04:41:44.184Z,4.43
2022-08-09T04:44:12.455Z,6.38
2022-08-09T04:46:57.334Z,4.80
2022-08-09T04:49:53.631Z,5.88
2022-08-09T04:52:26.624Z,5.10
2022-08-09T04:54:59.491Z,4.93
2022-08-09T04:57:27.134Z,4.95
2022-08-09T05:00:14.013Z,4.97
2022-08-09T05:02:44.164Z,5.07
2022-08-09T05:05:18.914Z,4.00
2022-08-09T05:07:59.271Z,4.22
2022-08-09T05:10:27.087Z,6.32
2022-08-09T05:12:53.775Z,5.00
2022-08-09T05:15:24.733Z,5.20
2022-08-09T05:18:38.257Z,6.25
2022-08-09T05:20:52.523Z,5.68
2022-08-09T05:23:55.373Z,8.95
2022-08-09T05:26:06.565Z,8.65
2022-08-09T05:28:34.043Z,6.50
2022-08-09T05:31:01.139Z,4.28
2022-08-09T05:33:36.320Z,6.63
2022-08-09T05:36:09.120Z,4.80
2022-08-09T05:38:39.182Z,7.72
2022-08-09T05:41:06.166Z,6.20
2022-08-09T05:43:40.730Z,6.78
2022-08-09T05:46:13.385Z,12.57
2022-08-09T05:48:39.921Z,7.15
2022-08-09T05:51:30.147Z,3.90
2022-08-09T05:53:57.795Z,4.00
2022-08-09T05:56:25.787Z,4.78
2022-08-09T05:58:58.518Z,4.65
2022-08-09T06:01:33.746Z,3.70
2022-08-09T06:04:08.832Z,4.53
2022-08-09T06:06:39.415Z,4.65
2022-08-09T06:09:23.214Z,4.93
2022-08-09T06:11:57.296Z,3.30
2022-08-09T06:14:24.928Z,3.72
2022-08-09T06:16:52.717Z,3.63
2022-08-09T06:19:19.275Z,3.15
2022-08-09T06:21:50.492Z,4.38
2022-08-09T06:24:24.723Z,3.08
2022-08-09T06:26:51.519Z,3.40
2022-08-09T06:29:18.899Z,3.33
2022-08-09T06:32:52.786Z,3.20
2022-08-09T06:34:34.670Z,3.13
2022-08-09T06:37:03.454Z,3.60
2022-08-09T06:39:49.221Z,3.40
2022-08-09T06:42:24.447Z,3.33
2022-08-09T06:44:54.522Z,3.17
2022-08-09T06:47:21.427Z,3.50
2022-08-09T06:50:13.664Z,3.63
2022-08-09T06:52:35.409Z,3.28
2022-08-09T06:55:12.667Z,3.20
2022-08-09T06:58:01.784Z,3.22
2022-08-09T07:00:55.467Z,3.08
2022-08-09T07:03:14.316Z,3.10
2022-08-09T07:05:58.148Z,3.00
2022-08-09T07:08:27.648Z,3.30
2022-08-09T07:10:57.338Z,3.55
2022-08-09T07:13:28.117Z,3.13
2022-08-09T07:16:43.362Z,3.40
2022-08-09T07:18:43.656Z,3.10
2022-08-09T07:21:10.353Z,3.55
2022-08-09T07:23:56.290Z,3.05
2022-08-09T07:26:24.212Z,3.42
2022-08-09T07:29:09.412Z,3.33
2022-08-09T07:31:38.178Z,3.30
2022-08-09T07:34:05.355Z,3.55
2022-08-09T07:36:32.347Z,3.15
2022-08-09T07:39:00.821Z,3.13
2022-08-09T07:41:32.985Z,3.40
2022-08-09T07:44:05.587Z,3.60
2022-08-09T07:46:33.430Z,3.33
2022-08-09T07:49:03.626Z,3.15
2022-08-09T07:52:06.017Z,3.47
2022-08-09T07:54:27.862Z,2.97
2022-08-09T07:56:54.933Z,3.47
2022-08-09T07:59:34.017Z,3.20
2022-08-09T08:02:09.051Z,3.40
2022-08-09T08:04:36.510Z,3.20
2022-08-09T08:07:09.618Z,3.83
2022-08-09T08:09:55.138Z,3.30
2022-08-09T08:12:42.568Z,3.17
2022-08-09T08:15:14.276Z,3.13
2022-08-09T08:17:55.128Z,3.50
2022-08-09T08:20:28.834Z,3.38
2022-08-09T08:23:01.270Z,3.83
2022-08-09T08:25:44.002Z,3.63
2022-08-09T08:28:11.326Z,3.20
2022-08-09T08:30:41.748Z,3.20
2022-08-09T08:33:11.900Z,3.47
2022-08-09T08:35:59.367Z,3.35
2022-08-09T08:38:29.406Z,3.50
2022-08-09T08:40:58.337Z,3.50
2022-08-09T08:43:27.688Z,3.60
2022-08-09T08:46:10.292Z,3.13
2022-08-09T08:48:53.284Z,3.58
2022-08-09T08:51:23.104Z,3.17
2022-08-09T08:54:03.379Z,3.35
2022-08-09T08:56:35.279Z,3.88
2022-08-09T08:59:19.173Z,3.75
2022-08-09T09:01:53.060Z,3.42
2022-08-09T09:04:31.199Z,3.42
2022-08-09T09:07:08.241Z,3.17
2022-08-09T09:09:58.114Z,3.17
2022-08-09T09:12:29.594Z,3.35
2022-08-09T09:15:00.531Z,3.10
2022-08-09T09:17:41.122Z,3.00
2022-08-09T09:20:15.464Z,3.38
2022-08-09T09:22:57.805Z,2.83
2022-08-09T09:26:03.711Z,2.80
2022-08-09T09:29:01.716Z,3.03
2022-08-09T09:31:17.541Z,2.63
2022-08-09T09:34:15.191Z,2.78
2022-08-09T09:36:51.168Z,2.92
2022-08-09T09:39:23.241Z,3.10
2022-08-09T09:41:51.157Z,2.80
2022-08-09T09:44:31.648Z,2.60
2022-08-09T09:47:16.249Z,2.53
2022-08-09T09:50:13.633Z,2.90
2022-08-09T09:52:54.374Z,2.83
2022-08-09T09:55:28.308Z,2.67
2022-08-09T09:58:15.823Z,2.67
2022-08-09T10:00:52.638Z,2.67
2022-08-09T10:03:56.959Z,2.80
2022-08-09T10:06:42.858Z,2.55
2022-08-09T10:09:22.752Z,2.97
2022-08-09T10:12:14.803Z,2.67
2022-08-09T10:14:49.332Z,2.38
2022-08-09T10:17:39.671Z,2.80
2022-08-09T10:20:35.578Z,2.78
2022-08-09T10:23:22.774Z,2.50
2022-08-09T10:26:06.159Z,2.92
2022-08-09T10:28:36.634Z,2.55
2022-08-09T10:36:40.405Z,2.70
2022-08-09T10:39:14.191Z,2.90
2022-08-09T10:41:43.261Z,2.38
2022-08-09T10:44:10.623Z,2.75
2022-08-09T10:48:16.899Z,2.60
2022-08-09T10:50:32.861Z,2.60
2022-08-09T10:53:11.683Z,2.45
2022-08-09T10:55:55.675Z,2.63
2022-08-09T10:58:34.962Z,2.50
2022-08-09T11:03:06.925Z,2.70
2022-08-09T11:04:30.345Z,3.55
2022-08-09T11:06:59.662Z,3.70
2022-08-09T11:09:38.758Z,3.90
2022-08-09T11:12:17.232Z,3.47
2022-08-09T11:14:54.958Z,3.67
2022-08-09T11:17:22.567Z,3.75
2022-08-09T11:20:11.594Z,3.40
2022-08-09T11:22:43.208Z,3.72
2022-08-09T11:25:44.758Z,3.72
2022-08-09T11:28:38.303Z,3.55
2022-08-09T11:31:49.476Z,3.92
2022-08-09T11:34:52.114Z,3.70
2022-08-09T11:37:27.946Z,3.60
2022-08-09T11:40:11.611Z,3.92
2022-08-09T11:42:48.508Z,4.00
2022-08-09T11:45:42.909Z,3.85
2022-08-09T11:48:19.311Z,3.83
2022-08-09T11:52:50.006Z,4.53
2022-08-09T11:54:00.994Z,3.60
2022-08-09T11:56:42.593Z,3.67
2022-08-09T11:59:30.661Z,3.92
2022-08-09T12:02:17.627Z,3.80
2022-08-09T12:04:57.953Z,4.18
2022-08-09T12:07:34.343Z,3.70
2022-08-09T12:10:14.188Z,3.90
2022-08-09T12:12:57.389Z,4.10
2022-08-09T12:15:48.404Z,3.58
2022-08-09T12:18:26.016Z,3.67
2022-08-09T12:21:00.637Z,3.85
2022-08-09T12:23:58.708Z,4.00
2022-08-09T12:26:19.685Z,4.35
2022-08-09T12:28:59.850Z,3.70
2022-08-09T12:32:01.763Z,3.90
2022-08-09T12:34:42.193Z,4.05
2022-08-09T12:37:23.804Z,4.18
2022-08-09T12:40:09.977Z,3.97
2022-08-09T12:42:43.762Z,4.35
2022-08-09T12:45:32.576Z,4.30
2022-08-09T12:47:58.892Z,3.78
2022-08-09T12:50:25.750Z,4.05
2022-08-09T12:53:08.693Z,4.05
2022-08-09T12:56:15.326Z,4.32
2022-08-09T12:58:28.298Z,5.18
2022-08-09T13:00:56.568Z,4.65
2022-08-09T13:03:53.315Z,4.13
2022-08-09T13:06:39.901Z,4.32
2022-08-09T13:09:23.228Z,5.07
2022-08-09T13:12:02.181Z,4.57
2022-08-09T13:14:42.139Z,4.40
2022-08-09T13:17:44.392Z,4.38
2022-08-09T13:20:14.304Z,4.53
2022-08-09T13:23:05.881Z,4.65
2022-08-09T13:25:54.693Z,4.95
2022-08-09T13:28:34.486Z,4.78
2022-08-09T13:32:14.374Z,4.40
2022-08-09T13:33:58.421Z,4.20
2022-08-09T13:36:42.664Z,4.10
2022-08-09T13:41:21.239Z,4.53
2022-08-09T13:42:02.745Z,4.10
2022-08-09T13:44:32.094Z,4.30
2022-08-09T13:47:29.588Z,4.10
2022-08-09T13:49:57.680Z,4.40
2022-08-09T13:52:29.921Z,4.88
2022-08-09T13:54:58.863Z,4.35
2022-08-09T13:57:37.041Z,4.72
2022-08-09T14:00:15.489Z,4.70
2022-08-09T14:03:04.145Z,4.68
2022-08-09T14:05:57.411Z,5.13
2022-08-09T14:08:24.687Z,4.40
2022-08-09T14:10:54.125Z,4.20
2022-08-09T14:14:14.818Z,4.50
2022-08-09T14:16:16.096Z,5.18
2022-08-09T14:18:49.114Z,4.68
2022-08-09T14:21:22.241Z,4.70
2022-08-09T14:23:56.926Z,4.35
2022-08-09T14:26:31.945Z,4.50
2022-08-09T14:29:25.654Z,3.70
2022-08-09T14:31:55.500Z,4.50
2022-08-09T14:34:27.367Z,4.22
2022-08-09T14:37:00.993Z,4.25
2022-08-09T14:39:45.621Z,4.20
2022-08-09T14:42:30.301Z,4.78
2022-08-09T14:44:59.846Z,4.55
2022-08-09T14:47:44.848Z,4.63
2022-08-09T14:50:16.009Z,4.50
2022-08-09T14:52:43.023Z,4.43
2022-08-09T14:55:09.995Z,4.15
2022-08-09T14:57:43.206Z,4.97
2022-08-09T15:00:11.878Z,4.90
2022-08-09T15:02:38.784Z,4.10
2022-08-09T15:05:07.400Z,4.75
2022-08-09T15:07:35.205Z,4.45
2022-08-09T15:10:11.176Z,4.25
2022-08-09T15:12:44.960Z,4.50
2022-08-09T15:15:13.202Z,4.40
2022-08-09T15:17:42.593Z,4.05
2022-08-09T15:20:20.310Z,3.90
2022-08-09T15:24:03.641Z,4.43
2022-08-09T15:25:52.279Z,4.63
2022-08-09T15:28:24.031Z,4.63
2022-08-09T15:34:04.392Z,4.45
2022-08-09T15:36:28.435Z,3.83
2022-08-09T15:39:00.493Z,3.75
2022-08-09T15:41:31.708Z,3.95
2022-08-09T15:44:02.024Z,4.18
2022-08-09T15:46:33.021Z,4.22
2022-08-09T15:49:21.948Z,4.30
2022-08-09T15:52:03.360Z,3.97
2022-08-09T15:54:49.119Z,4.00
2022-08-09T15:57:19.071Z,4.05
2022-08-09T16:00:01.889Z,4.68
2022-08-09T16:02:28.426Z,3.90
2022-08-09T16:04:55.587Z,3.83
2022-08-09T16:07:22.526Z,4.80
2022-08-09T16:10:02.246Z,4.80
2022-08-09T16:12:32.670Z,3.95
2022-08-09T16:14:59.446Z,3.90
2022-08-09T16:17:28.895Z,6.22
2022-08-09T16:20:03.833Z,4.40
2022-08-09T16:22:33.737Z,4.45
2022-08-09T16:25:01.485Z,4.60
2022-08-09T16:27:29.830Z,4.10
2022-08-09T16:30:00.684Z,4.00
2022-08-09T16:32:49.486Z,4.28
2022-08-09T16:35:57.167Z,4.07
2022-08-09T16:38:08.209Z,4.30
2022-08-09T16:40:40.541Z,4.05
2022-08-09T16:43:08.364Z,3.85
2022-08-09T16:45:41.652Z,4.00
2022-08-09T16:48:41.278Z,3.85
2022-08-09T16:50:59.184Z,4.40
2022-08-09T16:53:32.166Z,4.47
2022-08-09T16:56:06.063Z,4.30
2022-08-09T16:58:36.765Z,4.18
2022-08-09T17:01:04.577Z,3.95
2022-08-09T17:03:32.012Z,4.07
2022-08-09T17:06:07.278Z,4.05
2022-08-09T17:08:45.725Z,3.95
2022-08-09T17:11:40.133Z,4.78
2022-08-09T17:14:08.800Z,4.00
2022-08-09T17:16:54.194Z,4.60
2022-08-09T17:19:21.019Z,4.40
2022-08-09T17:21:47.702Z,4.25
2022-08-09T17:24:27.318Z,4.18
2022-08-09T17:26:57.024Z,4.07
2022-08-09T17:29:25.403Z,4.30
2022-08-09T17:32:00.870Z,4.50
2022-08-09T17:35:07.545Z,4.38
2022-08-09T17:39:52.265Z,4.32
2022-08-09T17:42:41.317Z,4.72
2022-08-09T17:47:54.821Z,3.90
2022-08-09T17:50:36.037Z,4.43
2022-08-09T17:53:19.373Z,4.25
2022-08-09T17:55:51.260Z,3.95
2022-08-09T17:58:26.679Z,4.38
2022-08-09T18:00:58.455Z,4.22
2022-08-09T18:03:26.417Z,4.32
2022-08-09T18:05:57.077Z,4.30
2022-08-09T18:08:27.435Z,4.70
2022-08-09T18:11:02.201Z,4.38
2022-08-09T18:13:43.253Z,4.78
2022-08-09T18:16:17.555Z,4.53
2022-08-09T18:18:57.075Z,4.38
2022-08-09T18:21:24.436Z,4.30
2022-08-09T18:24:12.454Z,4.50
2022-08-09T18:26:46.445Z,4.57
2022-08-09T18:30:36.194Z,4.55
2022-08-09T18:32:05.307Z,4.25
2022-08-09T18:34:35.029Z,4.05
2022-08-09T18:37:10.563Z,5.40
2022-08-09T18:39:53.823Z,4.38
2022-08-09T18:42:21.174Z,4.40
2022-08-09T18:44:56.023Z,4.68
2022-08-09T18:47:27.609Z,4.15
2022-08-09T18:50:03.003Z,4.70
2022-08-09T18:52:35.023Z,4.57
2022-08-09T18:55:03.777Z,3.40
2022-08-09T18:57:43.295Z,3.10
2022-08-09T19:00:19.189Z,3.80
2022-08-09T19:02:51.039Z,3.45
2022-08-09T19:05:41.439Z,4.32
2022-08-09T19:08:10.582Z,3.42
2022-08-09T19:10:40.747Z,3.17
2022-08-09T19:13:20.885Z,4.28
2022-08-09T19:15:56.396Z,3.83
2022-08-09T19:18:33.819Z,3.15
2022-08-09T19:21:09.329Z,3.30
2022-08-09T19:24:32.522Z,3.30
2022-08-09T19:26:29.485Z,3.20
2022-08-09T19:29:01.668Z,3.60
2022-08-09T19:31:45.053Z,3.22
2022-08-09T19:34:21.450Z,3.80
2022-08-09T19:36:54.491Z,3.40
2022-08-09T19:39:42.812Z,3.47
2022-08-09T19:42:14.960Z,4.07
2022-08-09T19:44:50.833Z,4.13
2022-08-09T19:47:20.444Z,3.70
2022-08-09T19:50:09.150Z,3.30
2022-08-09T19:52:37.811Z,3.15
2022-08-09T19:55:17.032Z,3.42
2022-08-09T19:57:46.109Z,4.00
2022-08-09T20:00:15.943Z,3.45
2022-08-09T20:04:16.614Z,3.45
2022-08-09T20:05:31.053Z,3.50
2022-08-09T20:08:12.792Z,3.50
2022-08-09T20:10:43.894Z,3.70
2022-08-09T20:13:10.984Z,4.57
2022-08-09T20:16:38.604Z,6.22
2022-08-09T20:18:27.624Z,4.28
2022-08-09T20:20:55.545Z,3.90
2022-08-09T20:23:23.099Z,3.53
2022-08-09T20:25:52.905Z,3.40
2022-08-09T20:28:27.997Z,3.60
2022-08-09T20:31:02.735Z,3.60
2022-08-09T20:33:41.191Z,3.65
2022-08-09T20:36:12.219Z,3.20
2022-08-09T20:41:32.051Z,3.42
2022-08-09T20:44:02.188Z,3.17
2022-08-09T20:46:41.722Z,3.50
2022-08-09T20:49:10.347Z,3.45
2022-08-09T20:51:41.182Z,3.03
2022-08-09T20:54:16.660Z,3.45
2022-08-09T20:56:47.299Z,3.45
2022-08-09T20:59:17.424Z,3.53
2022-08-09T21:01:50.766Z,3.28
2022-08-09T21:05:52.670Z,3.50
2022-08-09T21:07:11.618Z,3.60
2022-08-09T21:09:56.113Z,3.28
2022-08-09T21:15:14.960Z,3.35
2022-08-09T21:18:23.977Z,3.75
2022-08-09T21:20:30.839Z,3.25
2022-08-09T21:22:59.674Z,3.70
2022-08-09T21:25:59.156Z,3.20
2022-08-09T21:28:36.141Z,3.10
2022-08-09T21:31:16.853Z,3.85
2022-08-09T21:33:49.442Z,3.42
2022-08-09T21:36:18.092Z,3.30
2022-08-09T21:38:45.482Z,3.75
2022-08-09T21:41:17.701Z,3.42
2022-08-09T21:43:57.790Z,3.30
2022-08-09T21:46:25.046Z,3.33
2022-08-09T21:48:53.252Z,3.05
2022-08-09T21:51:35.672Z,3.50
2022-08-09T21:54:02.689Z,3.00
2022-08-09T21:56:43.521Z,3.15
2022-08-09T21:59:16.274Z,3.50
2022-08-09T22:02:01.264Z,3.58
2022-08-09T22:04:55.437Z,3.38
2022-08-09T22:07:23.345Z,3.28
2022-08-09T22:10:06.716Z,3.80
2022-08-09T22:12:34.251Z,3.47
2022-08-09T22:15:01.561Z,3.28
2022-08-09T22:17:32.130Z,3.40
2022-08-09T22:20:00.796Z,3.50
2022-08-09T22:22:31.278Z,3.50
2022-08-09T22:26:08.370Z,3.45
2022-08-09T22:27:47.635Z,3.83
2022-08-09T22:30:15.882Z,3.15
2022-08-09T22:32:53.216Z,3.38
2022-08-09T22:36:00.900Z,3.47
2022-08-09T22:38:07.245Z,3.50
2022-08-09T22:40:35.439Z,3.42
2022-08-09T22:43:16.243Z,3.40
2022-08-09T22:48:15.097Z,3.67
2022-08-09T22:51:10.294Z,2.78
2022-08-09T22:53:58.663Z,3.22
2022-08-09T22:56:30.564Z,3.28
2022-08-09T23:01:33.140Z,3.13
2022-08-09T23:04:04.687Z,3.42
2022-08-09T23:06:51.334Z,3.05
2022-08-09T23:09:17.959Z,3.13
2022-08-09T23:11:44.452Z,3.25
2022-08-09T23:14:17.131Z,2.88
2022-08-09T23:16:44.675Z,3.50
2022-08-09T23:19:11.282Z,3.22
2022-08-09T23:21:38.862Z,3.30
2022-08-09T23:24:07.257Z,3.10
2022-08-09T23:26:38.562Z,3.17
2022-08-09T23:29:09.779Z,3.20
2022-08-09T23:31:36.380Z,2.80
2022-08-09T23:34:04.237Z,2.90
2022-08-09T23:36:31.984Z,2.72
2022-08-09T23:38:58.885Z,3.65
2022-08-09T23:41:27.614Z,3.33
2022-08-09T23:43:59.583Z,3.50
2022-08-09T23:46:30.864Z,3.50
2022-08-09T23:49:00.422Z,3.63
2022-08-09T23:51:28.481Z,3.20
2022-08-09T23:54:02.054Z,3.25
2022-08-09T23:56:39.599Z,2.80
2022-08-09T23:59:18.440Z,3.08
